createdAt,value
2019-06-01T00:00:39.996Z,99.13
2019-06-01T00:01:40.428Z,98.83
2019-06-01T00:02:40.797Z,98.93
2019-06-01T00:03:40.250Z,98.83
2019-06-01T00:04:40.811Z,99.54
2019-06-01T00:05:40.497Z,99.64
2019-06-01T00:06:40.687Z,99.44
2019-06-01T00:07:40.689Z,99.24
2019-06-01T00:08:40.196Z,99.33
2019-06-01T00:09:39.369Z,99.48
2019-06-01T00:10:39.382Z,99.24
2019-06-01T00:11:39.395Z,99.13
2019-06-01T00:12:39.395Z,99.64
2019-06-01T00:13:39.506Z,99.79
2019-06-01T00:14:39.710Z,99.79
2019-06-01T00:15:39.905Z,99.48
2019-06-01T00:16:39.922Z,99.68
2019-06-01T00:17:39.724Z,99.79
2019-06-01T00:18:39.824Z,99.79
2019-06-01T00:19:39.941Z,99.99
2019-06-01T00:20:40.082Z,99.58
2019-06-01T00:21:39.214Z,99.99
2019-06-01T00:22:39.257Z,99.99
2019-06-01T00:23:40.298Z,99.99
2019-06-01T00:24:39.196Z,99.99
2019-06-01T00:25:40.348Z,99.99
2019-06-01T00:26:39.170Z,99.99
2019-06-01T00:27:40.359Z,99.99
2019-06-01T00:28:39.168Z,99.99
2019-06-01T00:29:39.132Z,99.99
2019-06-01T00:30:39.140Z,99.99
2019-06-01T00:31:39.120Z,99.99
2019-06-01T00:32:39.106Z,99.99
2019-06-01T00:33:39.106Z,99.99
2019-06-01T00:34:39.111Z,99.99
2019-06-01T00:35:39.072Z,99.99
2019-06-01T00:36:39.074Z,99.99
2019-06-01T00:37:39.072Z,99.99
2019-06-01T00:38:39.045Z,99.99
2019-06-01T00:39:39.026Z,99.99
2019-06-01T00:40:39.035Z,99.99
2019-06-01T00:41:39.005Z,99.99
2019-06-01T00:42:39.021Z,99.99
2019-06-01T00:43:38.987Z,99.99
2019-06-01T00:44:38.973Z,99.99
2019-06-01T00:45:39.030Z,99.99
2019-06-01T00:46:39.044Z,99.99
2019-06-01T00:47:38.946Z,99.99
2019-06-01T00:48:38.942Z,99.99
2019-06-01T00:49:38.945Z,99.99
2019-06-01T00:50:38.908Z,99.99
2019-06-01T00:51:38.896Z,99.99
2019-06-01T00:52:38.903Z,99.99
2019-06-01T00:53:38.903Z,99.99
2019-06-01T00:54:38.854Z,99.99
2019-06-01T00:55:38.889Z,99.99
2019-06-01T00:56:38.847Z,99.99
2019-06-01T00:57:38.822Z,99.99
2019-06-01T00:58:38.818Z,99.99
2019-06-01T00:59:38.817Z,99.99
2019-06-01T01:00:43.718Z,99.99
2019-06-01T01:01:39.796Z,99.99
2019-06-01T01:02:38.788Z,99.99
2019-06-01T01:03:38.880Z,99.99
2019-06-01T01:04:38.756Z,99.99
2019-06-01T01:05:38.754Z,99.99
2019-06-01T01:06:38.738Z,99.99
2019-06-01T01:07:38.735Z,99.99
2019-06-01T01:08:38.698Z,99.99
2019-06-01T01:09:38.695Z,99.99
2019-06-01T01:10:38.697Z,99.99
2019-06-01T01:11:38.675Z,99.99
2019-06-01T01:12:39.428Z,99.99
2019-06-01T01:13:38.668Z,99.99
2019-06-01T01:14:38.634Z,99.99
2019-06-01T01:15:38.624Z,99.99
2019-06-01T01:16:38.627Z,99.99
2019-06-01T01:17:38.638Z,99.99
2019-06-01T01:18:38.593Z,99.99
2019-06-01T01:19:38.577Z,99.99
2019-06-01T01:20:38.618Z,99.99
2019-06-01T01:21:38.593Z,99.99
2019-06-01T01:22:38.561Z,99.99
2019-06-01T01:23:38.538Z,99.99
2019-06-01T01:24:38.524Z,99.99
2019-06-01T01:25:38.548Z,99.99
2019-06-01T01:26:38.506Z,99.99
2019-06-01T01:27:38.503Z,99.99
2019-06-01T01:28:38.502Z,99.99
2019-06-01T01:29:38.468Z,99.99
2019-06-01T01:30:38.476Z,99.99
2019-06-01T01:31:38.449Z,99.99
2019-06-01T01:32:38.458Z,99.99
2019-06-01T01:33:38.443Z,99.99
2019-06-01T01:34:38.422Z,99.99
2019-06-01T01:35:38.458Z,99.99
2019-06-01T01:36:38.379Z,99.99
2019-06-01T01:37:38.380Z,99.99
2019-06-01T01:38:38.387Z,99.99
2019-06-01T01:39:39.180Z,99.99
2019-06-01T01:40:38.363Z,99.99
2019-06-01T01:41:38.513Z,99.99
2019-06-01T01:42:38.321Z,99.99
2019-06-01T01:43:38.311Z,99.99
2019-06-01T01:44:38.321Z,99.99
2019-06-01T01:45:38.302Z,99.99
2019-06-01T01:46:38.277Z,99.99
2019-06-01T01:47:38.318Z,99.99
2019-06-01T01:48:38.262Z,99.99
2019-06-01T01:49:38.263Z,99.99
2019-06-01T01:50:38.231Z,99.99
2019-06-01T01:51:38.238Z,99.99
2019-06-01T01:52:38.207Z,99.99
2019-06-01T01:53:38.221Z,99.99
2019-06-01T01:54:38.191Z,99.99
2019-06-01T01:55:38.170Z,99.99
2019-06-01T01:56:38.174Z,99.99
2019-06-01T01:57:38.181Z,99.99
2019-06-01T01:58:38.180Z,99.99
2019-06-01T01:59:38.163Z,99.99
2019-06-01T02:00:38.142Z,99.99
2019-06-01T02:01:38.114Z,99.99
2019-06-01T02:02:38.114Z,99.99
2019-06-01T02:03:38.081Z,99.99
2019-06-01T02:04:38.092Z,99.99
2019-06-01T02:05:38.071Z,99.99
2019-06-01T02:06:38.271Z,99.99
2019-06-01T02:07:38.054Z,99.99
2019-06-01T02:08:38.025Z,99.99
2019-06-01T02:09:38.309Z,99.99
2019-06-01T02:10:38.009Z,99.99
2019-06-01T02:11:38.005Z,99.99
2019-06-01T02:12:37.992Z,99.99
2019-06-01T02:13:37.982Z,99.99
2019-06-01T02:14:38.009Z,99.99
2019-06-01T02:15:37.944Z,99.99
2019-06-01T02:16:37.946Z,99.99
2019-06-01T02:17:37.935Z,99.99
2019-06-01T02:18:37.925Z,99.99
2019-06-01T02:19:37.909Z,99.99
2019-06-01T02:20:37.922Z,99.99
2019-06-01T02:21:37.893Z,99.99
2019-06-01T02:22:37.881Z,99.99
2019-06-01T02:23:37.864Z,99.99
2019-06-01T02:24:37.885Z,99.99
2019-06-01T02:25:37.878Z,99.99
2019-06-01T02:26:37.826Z,99.99
2019-06-01T02:27:37.814Z,99.99
2019-06-01T02:28:37.800Z,99.99
2019-06-01T02:29:37.806Z,99.99
2019-06-01T02:30:37.802Z,99.99
2019-06-01T02:31:42.359Z,99.99
2019-06-01T02:32:38.766Z,99.99
2019-06-01T02:33:37.756Z,99.99
2019-06-01T02:34:37.736Z,99.99
2019-06-01T02:35:37.730Z,99.99
2019-06-01T02:36:37.747Z,99.99
2019-06-01T02:37:37.695Z,99.99
2019-06-01T02:38:37.715Z,99.99
2019-06-01T02:39:37.695Z,99.99
2019-06-01T02:40:37.674Z,99.99
2019-06-01T02:41:37.669Z,99.99
2019-06-01T02:42:37.938Z,99.99
2019-06-01T02:43:37.636Z,99.99
2019-06-01T02:44:37.634Z,99.99
2019-06-01T02:45:37.620Z,99.99
2019-06-01T02:46:37.611Z,99.99
2019-06-01T02:47:37.588Z,99.99
2019-06-01T02:48:48.231Z,99.99
2019-06-01T02:49:37.575Z,99.99
2019-06-01T02:50:37.589Z,99.99
2019-06-01T02:51:37.543Z,99.99
2019-06-01T02:52:37.528Z,99.99
2019-06-01T02:53:37.545Z,99.99
2019-06-01T02:54:37.516Z,99.99
2019-06-01T02:55:37.507Z,99.99
2019-06-01T02:56:37.484Z,99.99
2019-06-01T02:57:37.487Z,99.99
2019-06-01T02:58:37.503Z,99.99
2019-06-01T02:59:37.470Z,99.99
2019-06-01T03:00:37.462Z,99.99
2019-06-01T03:01:37.456Z,99.99
2019-06-01T03:02:37.433Z,99.99
2019-06-01T03:03:37.431Z,99.99
2019-06-01T03:04:37.489Z,99.99
2019-06-01T03:05:37.396Z,99.99
2019-06-01T03:06:37.387Z,99.99
2019-06-01T03:07:37.364Z,99.99
2019-06-01T03:08:37.361Z,99.99
2019-06-01T03:09:37.353Z,99.99
2019-06-01T03:10:37.501Z,99.99
2019-06-01T03:11:37.326Z,99.99
2019-06-01T03:12:37.340Z,99.99
2019-06-01T03:13:37.299Z,99.99
2019-06-01T03:14:37.297Z,99.99
2019-06-01T03:15:37.271Z,99.99
2019-06-01T03:16:40.044Z,99.99
2019-06-01T03:17:37.287Z,99.99
2019-06-01T03:18:37.236Z,99.99
2019-06-01T03:19:37.239Z,99.99
2019-06-01T03:20:37.222Z,99.99
2019-06-01T03:21:37.209Z,99.99
2019-06-01T03:22:37.212Z,99.99
2019-06-01T03:23:37.219Z,99.99
2019-06-01T03:24:37.208Z,99.99
2019-06-01T03:25:37.168Z,99.99
2019-06-01T03:26:37.180Z,99.99
2019-06-01T03:27:37.163Z,99.99
2019-06-01T03:28:37.147Z,99.99
2019-06-01T03:29:37.116Z,99.99
2019-06-01T03:30:37.111Z,99.99
2019-06-01T03:31:37.116Z,99.99
2019-06-01T03:32:37.696Z,99.99
2019-06-01T03:33:37.091Z,99.99
2019-06-01T03:34:37.068Z,99.99
2019-06-01T03:35:37.057Z,99.99
2019-06-01T03:36:37.044Z,99.99
2019-06-01T03:37:37.044Z,99.99
2019-06-01T03:38:37.028Z,99.99
2019-06-01T03:39:37.018Z,99.99
2019-06-01T03:40:36.989Z,99.99
2019-06-01T03:41:36.994Z,99.99
2019-06-01T03:42:36.978Z,99.99
2019-06-01T03:43:38.007Z,99.99
2019-06-01T03:44:36.953Z,99.99
2019-06-01T03:45:36.954Z,99.99
2019-06-01T03:46:36.925Z,99.99
2019-06-01T03:47:36.919Z,99.99
2019-06-01T03:48:36.964Z,99.99
2019-06-01T03:49:36.901Z,99.52
2019-06-01T03:50:36.894Z,99.52
2019-06-01T03:51:36.880Z,99.32
2019-06-01T03:52:36.867Z,99.41
2019-06-01T03:53:36.869Z,99.82
2019-06-01T03:54:36.855Z,99.01
2019-06-01T03:55:36.834Z,98.40
2019-06-01T03:56:36.840Z,98.10
2019-06-01T03:57:36.799Z,98.50
2019-06-01T03:58:36.798Z,98.46
2019-06-01T03:59:36.788Z,98.66
2019-06-01T04:00:36.816Z,98.76
2019-06-01T04:01:36.764Z,98.76
2019-06-01T04:02:36.763Z,97.75
2019-06-01T04:03:36.739Z,98.05
2019-06-01T04:04:36.729Z,97.75
2019-06-01T04:05:36.717Z,97.45
2019-06-01T04:06:36.755Z,97.14
2019-06-01T04:07:38.883Z,97.14
2019-06-01T04:08:36.683Z,97.50
2019-06-01T04:09:36.669Z,96.84
2019-06-01T04:10:36.663Z,97.14
2019-06-01T04:11:36.642Z,96.49
2019-06-01T04:12:36.747Z,97.00
2019-06-01T04:13:36.643Z,96.74
2019-06-01T04:14:36.625Z,96.69
2019-06-01T04:15:36.606Z,96.49
2019-06-01T04:16:36.596Z,96.59
2019-06-01T04:17:36.617Z,96.29
2019-06-01T04:18:36.580Z,96.69
2019-06-01T04:19:36.598Z,96.39
2019-06-01T04:20:36.555Z,96.49
2019-06-01T04:21:36.532Z,96.59
2019-06-01T04:22:36.520Z,95.89
2019-06-01T04:23:36.627Z,95.89
2019-06-01T04:24:36.517Z,95.54
2019-06-01T04:25:36.509Z,95.03
2019-06-01T04:26:36.483Z,95.03
2019-06-01T04:27:36.470Z,95.18
2019-06-01T04:28:36.460Z,94.78
2019-06-01T04:29:36.488Z,95.03
2019-06-01T04:30:36.449Z,94.93
2019-06-01T04:31:36.417Z,94.83
2019-06-01T04:32:48.818Z,94.83
2019-06-01T04:33:37.402Z,94.93
2019-06-01T04:34:36.409Z,95.03
2019-06-01T04:35:36.398Z,94.83
2019-06-01T04:36:36.427Z,94.59
2019-06-01T04:37:36.354Z,94.68
2019-06-01T04:38:36.357Z,94.59
2019-06-01T04:39:36.351Z,94.79
2019-06-01T04:40:36.327Z,94.38
2019-06-01T04:41:36.315Z,94.38
2019-06-01T04:42:36.451Z,94.38
2019-06-01T04:43:36.301Z,94.38
2019-06-01T04:44:36.308Z,94.13
2019-06-01T04:45:36.305Z,94.04
2019-06-01T04:46:36.277Z,94.44
2019-06-01T04:47:36.251Z,93.43
2019-06-01T04:48:36.236Z,92.93
2019-06-01T04:49:36.229Z,92.82
2019-06-01T04:50:36.209Z,92.58
2019-06-01T04:51:36.224Z,92.78
2019-06-01T04:52:36.201Z,92.78
2019-06-01T04:53:36.188Z,92.78
2019-06-01T04:54:36.167Z,92.47
2019-06-01T04:55:36.159Z,92.07
2019-06-01T04:56:36.169Z,91.67
2019-06-01T04:57:36.151Z,91.47
2019-06-01T04:58:36.167Z,91.63
2019-06-01T04:59:37.905Z,90.72
2019-06-01T05:00:36.117Z,90.62
2019-06-01T05:01:36.100Z,91.33
2019-06-01T05:02:36.100Z,90.58
2019-06-01T05:03:36.097Z,89.93
2019-06-01T05:04:36.067Z,89.37
2019-06-01T05:05:36.102Z,88.12
2019-06-01T05:06:36.028Z,87.98
2019-06-01T05:07:36.600Z,88.07
2019-06-01T05:08:36.030Z,87.47
2019-06-01T05:09:35.998Z,86.22
2019-06-01T05:10:36.001Z,85.52
2019-06-01T05:11:37.966Z,85.98
2019-06-01T05:12:35.982Z,84.77
2019-06-01T05:13:36.010Z,83.43
2019-06-01T05:14:35.967Z,82.22
2019-06-01T05:15:35.962Z,82.92
2019-06-01T05:16:35.953Z,81.82
2019-06-01T05:17:35.906Z,81.98
2019-06-01T05:18:35.893Z,82.18
2019-06-01T05:19:35.904Z,80.88
2019-06-01T05:20:35.875Z,80.94
2019-06-01T05:21:35.884Z,80.43
2019-06-01T05:22:35.863Z,80.30
2019-06-01T05:23:35.839Z,79.09
2019-06-01T05:24:35.891Z,78.75
2019-06-01T05:25:35.843Z,78.55
2019-06-01T05:26:35.810Z,78.96
2019-06-01T05:27:35.863Z,78.92
2019-06-01T05:28:35.789Z,77.85
2019-06-01T05:29:35.767Z,78.66
2019-06-01T05:30:35.774Z,78.15
2019-06-01T05:31:35.762Z,78.35
2019-06-01T05:32:35.752Z,78.55
2019-06-01T05:33:37.664Z,78.96
2019-06-01T05:34:35.744Z,79.36
2019-06-01T05:35:35.762Z,79.16
2019-06-01T05:36:35.689Z,79.05
2019-06-01T05:37:35.686Z,78.66
2019-06-01T05:38:35.684Z,78.55
2019-06-01T05:39:35.659Z,78.66
2019-06-01T05:40:35.765Z,78.55
2019-06-01T05:41:35.644Z,78.66
2019-06-01T05:42:35.646Z,77.95
2019-06-01T05:43:35.610Z,77.69
2019-06-01T05:44:35.626Z,78.09
2019-06-01T05:45:35.610Z,78.15
2019-06-01T05:46:35.628Z,77.79
2019-06-01T05:47:35.574Z,78.05
2019-06-01T05:48:35.590Z,77.65
2019-06-01T05:49:35.549Z,78.15
2019-06-01T05:50:35.555Z,77.81
2019-06-01T05:51:35.534Z,77.91
2019-06-01T05:52:35.540Z,77.91
2019-06-01T05:53:35.521Z,78.02
2019-06-01T05:54:35.488Z,77.67
2019-06-01T05:55:35.484Z,78.42
2019-06-01T05:56:35.489Z,78.42
2019-06-01T05:57:35.458Z,78.75
2019-06-01T05:58:35.508Z,78.75
2019-06-01T05:59:35.450Z,78.35
2019-06-01T06:00:35.433Z,78.45
2019-06-01T06:01:35.439Z,79.25
2019-06-01T06:02:35.400Z,79.16
2019-06-01T06:03:40.261Z,78.61
2019-06-01T06:04:36.402Z,78.58
2019-06-01T06:05:35.379Z,77.08
2019-06-01T06:06:35.365Z,75.87
2019-06-01T06:07:35.367Z,75.93
2019-06-01T06:08:35.356Z,76.57
2019-06-01T06:09:35.495Z,76.98
2019-06-01T06:10:35.344Z,76.14
2019-06-01T06:11:35.339Z,76.84
2019-06-01T06:12:35.296Z,75.34
2019-06-01T06:13:35.283Z,76.24
2019-06-01T06:14:35.282Z,75.30
2019-06-01T06:15:35.275Z,75.30
2019-06-01T06:16:35.301Z,75.80
2019-06-01T06:17:35.242Z,75.70
2019-06-01T06:18:35.234Z,75.20
2019-06-01T06:19:35.223Z,75.30
2019-06-01T06:20:35.239Z,74.87
2019-06-01T06:21:35.206Z,74.87
2019-06-01T06:22:35.215Z,74.26
2019-06-01T06:23:35.177Z,74.80
2019-06-01T06:24:35.173Z,75.30
2019-06-01T06:25:36.601Z,75.10
2019-06-01T06:26:35.157Z,73.19
2019-06-01T06:27:35.135Z,74.30
2019-06-01T06:28:35.131Z,74.50
2019-06-01T06:29:35.114Z,74.60
2019-06-01T06:30:35.106Z,74.66
2019-06-01T06:31:35.087Z,72.50
2019-06-01T06:32:35.086Z,74.00
2019-06-01T06:33:36.968Z,73.93
2019-06-01T06:34:35.078Z,74.54
2019-06-01T06:35:35.046Z,74.77
2019-06-01T06:36:35.059Z,75.60
2019-06-01T06:37:35.044Z,75.91
2019-06-01T06:38:35.018Z,76.61
2019-06-01T06:39:35.018Z,76.71
2019-06-01T06:40:34.992Z,77.31
2019-06-01T06:41:34.974Z,76.81
2019-06-01T06:42:35.171Z,76.04
2019-06-01T06:43:34.958Z,74.87
2019-06-01T06:44:34.972Z,72.89
2019-06-01T06:45:34.931Z,70.79
2019-06-01T06:46:34.934Z,67.86
2019-06-01T06:47:34.940Z,64.65
2019-06-01T06:48:34.907Z,62.24
2019-06-01T06:49:49.787Z,57.76
2019-06-01T06:50:34.891Z,55.68
2019-06-01T06:51:34.921Z,57.35
2019-06-01T06:52:34.863Z,58.80
2019-06-01T06:53:35.580Z,60.14
2019-06-01T06:54:34.851Z,61.17
2019-06-01T06:55:34.816Z,62.89
2019-06-01T06:56:34.845Z,62.16
2019-06-01T06:57:34.894Z,61.64
2019-06-01T06:58:34.793Z,61.24
2019-06-01T06:59:34.783Z,58.90
2019-06-01T07:00:34.801Z,59.42
2019-06-01T07:01:34.754Z,59.14
2019-06-01T07:02:34.746Z,55.88
2019-06-01T07:03:34.776Z,54.49
2019-06-01T07:04:34.719Z,52.44
2019-06-01T07:05:34.723Z,51.07
2019-06-01T07:06:34.698Z,49.03
2019-06-01T07:07:34.694Z,45.45
2019-06-01T07:08:34.678Z,44.42
2019-06-01T07:09:34.714Z,42.49
2019-06-01T07:10:34.666Z,41.68
2019-06-01T07:11:34.658Z,40.08
2019-06-01T07:12:34.638Z,39.86
2019-06-01T07:13:34.645Z,39.86
2019-06-01T07:14:34.613Z,42.00
2019-06-01T07:15:34.729Z,42.43
2019-06-01T07:16:34.598Z,41.51
2019-06-01T07:17:34.592Z,39.66
2019-06-01T07:18:34.571Z,37.45
2019-06-01T07:19:34.557Z,38.94
2019-06-01T07:20:35.367Z,37.12
2019-06-01T07:21:34.549Z,36.11
2019-06-01T07:22:34.545Z,35.72
2019-06-01T07:23:34.548Z,36.67
2019-06-01T07:24:34.500Z,37.65
2019-06-01T07:25:34.555Z,37.22
2019-06-01T07:26:34.476Z,36.73
2019-06-01T07:27:34.480Z,37.67
2019-06-01T07:28:34.468Z,39.00
2019-06-01T07:29:34.471Z,39.27
2019-06-01T07:30:49.683Z,38.20
2019-06-01T07:31:35.446Z,39.66
2019-06-01T07:32:34.417Z,39.86
2019-06-01T07:33:34.435Z,37.06
2019-06-01T07:34:41.783Z,36.72
2019-06-01T07:35:35.380Z,37.06
2019-06-01T07:36:34.419Z,39.14
2019-06-01T07:37:34.372Z,44.23
2019-06-01T07:38:34.361Z,46.76
2019-06-01T07:39:34.348Z,45.85
2019-06-01T07:40:34.361Z,46.96
2019-06-01T07:41:35.020Z,43.99
2019-06-01T07:42:34.306Z,42.25
2019-06-01T07:43:34.304Z,42.63
2019-06-01T07:44:34.326Z,45.02
2019-06-01T07:45:35.379Z,42.89
2019-06-01T07:46:34.781Z,43.91
2019-06-01T07:47:34.249Z,45.48
2019-06-01T07:48:34.273Z,46.39
2019-06-01T07:49:34.244Z,46.45
2019-06-01T07:50:34.225Z,48.68
2019-06-01T07:51:34.244Z,49.89
2019-06-01T07:52:34.209Z,47.77
2019-06-01T07:53:34.187Z,49.34
2019-06-01T07:54:34.218Z,50.13
2019-06-01T07:55:34.161Z,47.77
2019-06-01T07:56:34.161Z,47.15
2019-06-01T07:57:34.165Z,45.92
2019-06-01T07:58:34.118Z,45.21
2019-06-01T07:59:34.132Z,42.69
2019-06-01T08:00:34.123Z,41.47
2019-06-01T08:01:34.103Z,39.35
2019-06-01T08:02:34.104Z,37.78
2019-06-01T08:03:35.099Z,38.12
2019-06-01T08:04:51.865Z,35.19
2019-06-01T08:05:35.059Z,33.14
2019-06-01T08:06:34.056Z,32.75
2019-06-01T08:07:34.044Z,31.01
2019-06-01T08:08:34.019Z,30.04
2019-06-01T08:09:34.039Z,32.42
2019-06-01T08:10:33.990Z,30.51
2019-06-01T08:11:35.187Z,29.58
2019-06-01T08:12:34.246Z,27.49
2019-06-01T08:13:35.862Z,26.07
2019-06-01T08:14:34.017Z,24.48
2019-06-01T08:15:33.944Z,23.97
2019-06-01T08:16:33.934Z,22.99
2019-06-01T08:17:33.918Z,22.85
2019-06-01T08:18:33.919Z,23.80
2019-06-01T08:19:33.917Z,23.91
2019-06-01T08:20:33.904Z,25.74
2019-06-01T08:21:33.885Z,28.15
2019-06-01T08:22:33.889Z,26.41
2019-06-01T08:23:33.866Z,26.09
2019-06-01T08:24:33.865Z,28.14
2019-06-01T08:25:33.843Z,27.35
2019-06-01T08:26:33.841Z,26.63
2019-06-01T08:27:33.845Z,26.85
2019-06-01T08:28:33.804Z,29.05
2019-06-01T08:29:33.796Z,28.32
2019-06-01T08:30:33.777Z,28.88
2019-06-01T08:31:33.796Z,29.94
2019-06-01T08:32:33.758Z,29.00
2019-06-01T08:33:35.075Z,27.79
2019-06-01T08:34:33.743Z,26.70
2019-06-01T08:35:33.738Z,25.21
2019-06-01T08:36:33.994Z,25.27
2019-06-01T08:37:33.727Z,23.69
2019-06-01T08:38:33.872Z,23.71
2019-06-01T08:39:34.238Z,23.81
2019-06-01T08:40:33.679Z,24.79
2019-06-01T08:41:33.773Z,24.09
2019-06-01T08:42:33.783Z,24.35
2019-06-01T08:43:33.968Z,22.30
2019-06-01T08:44:35.502Z,23.39
2019-06-01T08:45:37.255Z,23.90
2019-06-01T08:46:34.012Z,24.01
2019-06-01T08:47:34.070Z,25.38
2019-06-01T08:48:34.096Z,25.68
2019-06-01T08:49:34.529Z,26.29
2019-06-01T08:50:34.067Z,26.68
2019-06-01T08:51:34.187Z,25.32
2019-06-01T08:52:34.173Z,24.52
2019-06-01T08:53:34.250Z,24.41
2019-06-01T08:54:34.354Z,24.50
2019-06-01T08:55:34.478Z,24.32
2019-06-01T08:56:34.475Z,24.79
2019-06-01T08:57:34.576Z,25.79
2019-06-01T08:58:34.641Z,25.83
2019-06-01T08:59:34.602Z,27.73
2019-06-01T09:00:34.654Z,28.58
2019-06-01T09:01:34.601Z,29.25
2019-06-01T09:02:34.840Z,28.51
2019-06-01T09:03:34.214Z,26.97
2019-06-01T09:04:33.435Z,24.28
2019-06-01T09:05:33.497Z,22.90
2019-06-01T09:06:33.516Z,22.20
2019-06-01T09:07:33.408Z,21.91
2019-06-01T09:08:33.461Z,22.01
2019-06-01T09:09:33.395Z,22.22
2019-06-01T09:10:33.376Z,25.25
2019-06-01T09:11:33.390Z,28.25
2019-06-01T09:12:33.379Z,27.42
2019-06-01T09:13:33.357Z,25.79
2019-06-01T09:14:33.498Z,24.61
2019-06-01T09:15:33.728Z,23.79
2019-06-01T09:16:33.569Z,24.11
2019-06-01T09:17:33.514Z,26.35
2019-06-01T09:18:33.712Z,25.70
2019-06-01T09:19:33.632Z,23.21
2019-06-01T09:20:38.542Z,22.90
2019-06-01T09:21:33.619Z,21.89
2019-06-01T09:22:33.584Z,21.53
2019-06-01T09:23:33.781Z,24.03
2019-06-01T09:24:33.973Z,25.01
2019-06-01T09:25:33.838Z,24.01
2019-06-01T09:26:33.823Z,23.43
2019-06-01T09:27:33.952Z,24.33
2019-06-01T09:28:33.957Z,23.75
2019-06-01T09:29:34.088Z,23.93
2019-06-01T09:30:34.020Z,22.75
2019-06-01T09:31:34.386Z,22.92
2019-06-01T09:32:34.263Z,22.64
2019-06-01T09:33:35.066Z,23.56
2019-06-01T09:34:34.402Z,26.75
2019-06-01T09:35:48.612Z,28.57
2019-06-01T09:36:34.533Z,29.30
2019-06-01T09:37:33.161Z,30.18
2019-06-01T09:38:33.776Z,31.01
2019-06-01T09:39:33.228Z,32.34
2019-06-01T09:40:33.571Z,32.94
2019-06-01T09:41:33.106Z,33.87
2019-06-01T09:42:33.415Z,36.37
2019-06-01T09:43:33.041Z,35.25
2019-06-01T09:44:33.578Z,33.15
2019-06-01T09:45:34.496Z,33.11
2019-06-01T09:46:33.965Z,31.60
2019-06-01T09:47:33.307Z,32.53
2019-06-01T09:48:33.599Z,30.88
2019-06-01T09:49:34.096Z,31.30
2019-06-01T09:50:33.388Z,32.52
2019-06-01T09:51:33.455Z,32.28
2019-06-01T09:52:33.413Z,29.66
2019-06-01T09:53:34.352Z,29.68
2019-06-01T09:54:34.480Z,30.81
2019-06-01T09:55:34.377Z,33.14
2019-06-01T09:56:33.994Z,34.67
2019-06-01T09:57:34.111Z,34.36
2019-06-01T09:58:32.883Z,30.63
2019-06-01T09:59:33.837Z,30.65
2019-06-01T10:00:32.885Z,33.67
2019-06-01T10:01:32.840Z,33.05
2019-06-01T10:02:34.051Z,31.59
2019-06-01T10:03:34.334Z,31.22
2019-06-01T10:04:32.861Z,32.24
2019-06-01T10:05:32.810Z,32.75
2019-06-01T10:06:32.789Z,33.38
2019-06-01T10:07:32.898Z,28.94
2019-06-01T10:08:34.143Z,28.65
2019-06-01T10:09:33.623Z,27.01
2019-06-01T10:10:33.938Z,24.69
2019-06-01T10:11:34.204Z,24.52
2019-06-01T10:12:33.715Z,26.75
2019-06-01T10:13:33.383Z,26.40
2019-06-01T10:14:33.971Z,23.90
2019-06-01T10:15:32.736Z,23.51
2019-06-01T10:16:32.864Z,23.11
2019-06-01T10:17:33.307Z,22.69
2019-06-01T10:18:32.836Z,22.18
2019-06-01T10:19:32.678Z,21.48
2019-06-01T10:20:33.168Z,20.61
2019-06-01T10:21:33.904Z,20.81
2019-06-01T10:22:33.110Z,20.44
2019-06-01T10:23:32.622Z,21.52
2019-06-01T10:24:33.014Z,22.12
2019-06-01T10:25:32.610Z,22.99
2019-06-01T10:26:34.076Z,21.91
2019-06-01T10:27:32.648Z,22.18
2019-06-01T10:28:33.415Z,21.84
2019-06-01T10:29:32.826Z,21.85
2019-06-01T10:30:33.898Z,22.52
2019-06-01T10:31:32.661Z,21.83
2019-06-01T10:32:34.132Z,22.01
2019-06-01T10:33:32.713Z,21.42
2019-06-01T10:34:33.538Z,21.41
2019-06-01T10:35:32.792Z,21.99
2019-06-01T10:36:32.499Z,21.61
2019-06-01T10:37:33.322Z,22.52
2019-06-01T10:38:33.393Z,22.52
2019-06-01T10:39:33.038Z,23.83
2019-06-01T10:40:33.381Z,23.61
2019-06-01T10:41:33.221Z,22.96
2019-06-01T10:42:34.007Z,22.73
2019-06-01T10:43:33.693Z,21.83
2019-06-01T10:44:36.781Z,20.45
2019-06-01T10:45:33.619Z,22.01
2019-06-01T10:46:33.743Z,22.63
2019-06-01T10:47:33.560Z,22.42
2019-06-01T10:48:33.163Z,21.92
2019-06-01T10:49:32.374Z,21.62
2019-06-01T10:50:34.415Z,21.88
2019-06-01T10:51:32.398Z,20.64
2019-06-01T10:52:32.382Z,21.23
2019-06-01T10:53:32.359Z,24.84
2019-06-01T10:54:32.880Z,24.93
2019-06-01T10:55:32.318Z,23.43
2019-06-01T10:56:32.396Z,22.53
2019-06-01T10:57:32.368Z,23.34
2019-06-01T10:58:32.318Z,22.67
2019-06-01T10:59:32.301Z,22.34
2019-06-01T11:00:39.769Z,22.83
2019-06-01T11:01:34.664Z,25.65
2019-06-01T11:02:32.528Z,28.45
2019-06-01T11:03:32.517Z,25.76
2019-06-01T11:04:32.775Z,25.48
2019-06-01T11:05:32.558Z,23.87
2019-06-01T11:06:37.742Z,23.44
2019-06-01T11:07:33.219Z,22.43
2019-06-01T11:08:32.836Z,20.65
2019-06-01T11:09:32.998Z,21.33
2019-06-01T11:10:32.729Z,21.86
2019-06-01T11:11:32.713Z,23.27
2019-06-01T11:12:32.971Z,24.48
2019-06-01T11:13:33.038Z,23.66
2019-06-01T11:14:32.919Z,23.81
2019-06-01T11:15:32.985Z,22.31
2019-06-01T11:16:33.032Z,20.73
2019-06-01T11:17:32.833Z,20.23
2019-06-01T11:18:33.190Z,20.24
2019-06-01T11:19:33.194Z,21.12
2019-06-01T11:20:33.033Z,21.04
2019-06-01T11:21:33.456Z,21.75
2019-06-01T11:22:33.357Z,23.21
2019-06-01T11:23:33.215Z,22.53
2019-06-01T11:24:33.232Z,22.25
2019-06-01T11:25:33.362Z,21.82
2019-06-01T11:26:33.261Z,20.81
2019-06-01T11:27:33.494Z,20.04
2019-06-01T11:28:32.032Z,19.74
2019-06-01T11:29:33.437Z,19.56
2019-06-01T11:30:32.010Z,20.35
2019-06-01T11:31:32.005Z,21.38
2019-06-01T11:32:32.013Z,23.85
2019-06-01T11:33:32.009Z,22.69
2019-06-01T11:34:31.978Z,22.49
2019-06-01T11:35:31.976Z,22.56
2019-06-01T11:36:32.384Z,22.75
2019-06-01T11:37:31.966Z,22.05
2019-06-01T11:38:31.950Z,22.47
2019-06-01T11:39:31.968Z,23.16
2019-06-01T11:40:31.934Z,25.53
2019-06-01T11:41:31.922Z,26.79
2019-06-01T11:42:32.122Z,26.79
2019-06-01T11:43:31.938Z,28.90
2019-06-01T11:44:31.896Z,27.19
2019-06-01T11:45:31.891Z,26.90
2019-06-01T11:46:31.871Z,29.66
2019-06-01T11:47:31.875Z,31.08
2019-06-01T11:48:31.879Z,31.15
2019-06-01T11:49:31.850Z,29.40
2019-06-01T11:50:31.840Z,27.80
2019-06-01T11:51:31.844Z,27.08
2019-06-01T11:52:31.836Z,25.96
2019-06-01T11:53:31.864Z,25.35
2019-06-01T11:54:31.799Z,24.74
2019-06-01T11:55:31.793Z,23.44
2019-06-01T11:56:31.811Z,22.55
2019-06-01T11:57:31.818Z,22.71
2019-06-01T11:58:31.770Z,21.82
2019-06-01T11:59:31.776Z,21.64
2019-06-01T12:00:31.754Z,21.75
2019-06-01T12:01:31.740Z,22.46
2019-06-01T12:02:31.744Z,24.15
2019-06-01T12:03:31.742Z,24.08
2019-06-01T12:04:31.729Z,23.68
2019-06-01T12:05:31.733Z,23.17
2019-06-01T12:06:31.736Z,22.38
2019-06-01T12:07:31.697Z,22.17
2019-06-01T12:08:34.091Z,21.48
2019-06-01T12:09:31.676Z,22.29
2019-06-01T12:10:31.670Z,23.28
2019-06-01T12:11:31.678Z,23.68
2019-06-01T12:12:31.657Z,23.76
2019-06-01T12:13:31.719Z,22.67
2019-06-01T12:14:31.629Z,23.08
2019-06-01T12:15:31.622Z,24.07
2019-06-01T12:16:31.662Z,24.57
2019-06-01T12:17:31.609Z,25.59
2019-06-01T12:18:31.605Z,26.59
2019-06-01T12:19:31.607Z,26.98
2019-06-01T12:20:31.585Z,26.97
2019-06-01T12:21:31.597Z,26.29
2019-06-01T12:22:31.566Z,26.98
2019-06-01T12:23:31.597Z,25.41
2019-06-01T12:24:31.546Z,24.99
2019-06-01T12:25:31.544Z,25.40
2019-06-01T12:26:31.547Z,25.51
2019-06-01T12:27:31.520Z,25.08
2019-06-01T12:28:31.513Z,23.90
2019-06-01T12:29:31.549Z,23.98
2019-06-01T12:30:31.488Z,23.77
2019-06-01T12:31:31.494Z,23.98
2019-06-01T12:32:31.487Z,24.80
2019-06-01T12:33:31.504Z,26.82
2019-06-01T12:34:31.460Z,28.32
2019-06-01T12:35:31.471Z,28.63
2019-06-01T12:36:31.478Z,27.05
2019-06-01T12:37:45.563Z,26.36
2019-06-01T12:38:32.434Z,26.43
2019-06-01T12:39:31.469Z,25.73
2019-06-01T12:40:31.471Z,25.32
2019-06-01T12:41:31.395Z,25.21
2019-06-01T12:42:31.398Z,24.63
2019-06-01T12:43:31.409Z,25.10
2019-06-01T12:44:31.375Z,24.99
2019-06-01T12:45:31.374Z,24.03
2019-06-01T12:46:31.530Z,24.92
2019-06-01T12:47:31.349Z,25.62
2019-06-01T12:48:31.361Z,25.35
2019-06-01T12:49:31.337Z,26.93
2019-06-01T12:50:31.326Z,27.75
2019-06-01T12:51:31.323Z,27.95
2019-06-01T12:52:31.357Z,28.23